Time;durP1;ratioP1;P1;durP2;ratioP2;P2;SDS_P1;SDS_P2;PMS_P1;PMS_P2;Temp;Humidity;BMP_temperature;BMP_pressure;BME280_temperature;BME280_humidity;BME280_pressure;Samples;Min_cycle;Max_cycle;Signal;HPM_P1;HPM_P2
2022/10/28 00:05:00;;;;;;;0.03;0.03;;;;;;;14.51;100.00;102138.66;10607054;27;20043;-77
2022/10/28 00:10:02;;;;;;;0.13;0.10;;;;;;;14.56;100.00;102149.16;10592702;27;20051;-77
2022/10/28 00:15:04;;;;;;;1.23;0.73;;;;;;;14.62;100.00;102164.03;10588685;27;20047;-77
2022/10/28 00:20:06;;;;;;;0.45;0.22;;;;;;;14.57;100.00;102169.94;10615041;27;20401;-77
2022/10/28 00:25:09;;;;;;;0.00;0.00;;;;;;;14.51;100.00;102172.34;10624901;27;20482;-76
2022/10/28 00:30:10;;;;;;;0.45;0.35;;;;;;;14.08;100.00;102171.03;10608617;27;20065;-77
2022/10/28 00:35:12;;;;;;;0.30;0.28;;;;;;;14.00;100.00;102170.78;10608111;27;20134;-77
2022/10/28 00:40:13;;;;;;;0.47;0.47;;;;;;;13.93;100.00;102176.59;10620755;27;20046;-77
2022/10/28 00:45:15;;;;;;;0.10;0.10;;;;;;;14.26;100.00;102178.50;10621225;27;20093;-77
2022/10/28 00:50:42;;;;;;;0.38;0.38;;;;;;;14.08;100.00;102177.09;10621952;27;20520;-77
2022/10/28 00:55:45;;;;;;;5.68;2.08;;;;;;;14.10;100.00;102174.56;10621373;27;20118;-77
2022/10/28 01:00:47;;;;;;;0.68;0.30;;;;;;;14.54;100.00;102194.91;10602506;28;20051;-77
2022/10/28 01:05:50;;;;;;;0.52;0.47;;;;;;;14.62;100.00;102180.44;10602730;28;20134;-77
2022/10/28 01:11:00;;;;;;;2.10;1.10;;;;;;;14.76;100.00;102162.75;10621274;28;20130;-76
2022/10/28 01:16:47;;;;;;;0.55;0.40;;;;;;;14.79;100.00;102139.47;10592581;28;20137;-77
2022/10/28 01:22:10;;;;;;;0.30;0.30;;;;;;;14.93;100.00;102131.22;10621634;28;20064;-76
2022/10/28 01:27:45;;;;;;;8.43;1.65;;;;;;;14.97;100.00;102107.09;10603533;28;20413;-77
2022/10/28 01:33:07;;;;;;;0.52;0.40;;;;;;;15.27;100.00;102085.38;10618648;27;20047;-77
2022/10/28 01:38:40;;;;;;;2.05;0.95;;;;;;;15.32;100.00;102063.00;10629609;27;20479;-77
2022/10/28 01:43:53;;;;;;;0.65;0.55;;;;;;;14.77;100.00;102037.41;10586926;27;20064;-76
2022/10/28 01:49:04;;;;;;;0.80;0.40;;;;;;;15.17;100.00;102053.97;10596949;27;20054;-77
2022/10/28 01:54:06;;;;;;;;;;;;;;;14.77;100.00;102036.50;10615500;27;20050;-77
2022/10/28 01:59:13;;;;;;;0.22;0.22;;;;;;;14.72;100.00;102044.16;10613520;27;20441;-77
2022/10/28 02:04:15;;;;;;;1.02;0.65;;;;;;;14.74;100.00;102053.72;10608027;27;20118;-77
2022/10/28 02:09:46;;;;;;;1.45;1.02;;;;;;;15.05;100.00;102051.06;10612974;27;20043;-77
2022/10/28 02:15:06;;;;;;;0.40;0.40;;;;;;;14.83;100.00;102053.13;10609132;27;20050;-77
2022/10/28 02:20:24;;;;;;;4.95;2.22;;;;;;;14.99;100.00;102048.34;10583211;27;20097;-76
2022/10/28 02:25:33;;;;;;;1.35;0.88;;;;;;;14.95;100.00;102047.38;10627440;27;20078;-77
2022/10/28 02:30:58;;;;;;;2.95;1.70;;;;;;;14.66;100.00;102051.78;10608367;27;20391;-77
2022/10/28 02:36:09;;;;;;;0.57;0.55;;;;;;;14.58;100.00;102052.41;10626982;27;20470;-77
2022/10/28 02:41:47;;;;;;;0.80;0.73;;;;;;;14.94;100.00;102043.03;10627344;27;20047;-77
2022/10/28 02:46:51;;;;;;;0.63;0.45;;;;;;;14.94;100.00;102034.34;10623386;27;20418;-77
2022/10/28 02:51:57;;;;;;;1.63;1.02;;;;;;;14.96;100.00;102018.00;10625678;27;20497;-77
2022/10/28 02:57:14;;;;;;;0.95;0.80;;;;;;;14.99;100.00;102010.28;10625345;27;20039;-77
2022/10/28 03:02:16;;;;;;;2.33;0.80;;;;;;;14.90;100.00;101997.06;10606965;27;20129;-77
2022/10/28 03:07:18;;;;;;;1.98;0.80;;;;;;;14.93;100.00;101991.97;10624630;27;20134;-77
2022/10/28 03:12:20;;;;;;;0.40;0.32;;;;;;;14.83;100.00;101996.03;10606500;27;20043;-78
2022/10/28 03:17:21;;;;;;;3.03;1.45;;;;;;;14.79;100.00;101995.91;10605394;27;20126;-77
2022/10/28 03:22:24;;;;;;;1.00;0.88;;;;;;;14.80;100.00;101985.56;10604792;27;20126;-77
2022/10/28 03:27:26;;;;;;;0.55;0.40;;;;;;;14.87;100.00;101987.47;10606698;27;20047;-78
2022/10/28 03:32:27;;;;;;;0.73;0.52;;;;;;;14.88;100.00;101970.22;10624721;27;20486;-77
2022/10/28 03:37:29;;;;;;;0.32;0.32;;;;;;;14.88;100.00;101967.63;10624659;27;20039;-78
2022/10/28 03:42:32;;;;;;;18.10;1.08;;;;;;;14.89;100.00;101964.19;10601715;27;20486;-77
2022/10/28 03:47:36;;;;;;;1.15;0.43;;;;;;;14.88;100.00;101958.09;10612899;27;20126;-77
2022/10/28 03:52:38;;;;;;;1.73;1.33;;;;;;;14.94;100.00;101966.88;10622418;27;20066;-77
2022/10/28 03:57:39;;;;;;;0.40;0.35;;;;;;;14.72;100.00;101955.97;10603301;27;20058;-77
2022/10/28 04:02:41;;;;;;;0.55;0.40;;;;;;;14.79;100.00;101952.69;10593051;27;20043;-77
2022/10/28 04:07:42;;;;;;;0.20;0.20;;;;;;;14.78;100.00;101945.72;10619778;27;20035;-77
2022/10/28 04:12:52;;;;;;;1.67;0.88;;;;;;;14.65;100.00;101949.72;10623215;27;20387;-77
2022/10/28 04:17:54;;;;;;;0.55;0.22;;;;;;;14.77;100.00;101954.38;10622703;27;20035;-77
2022/10/28 04:22:56;;;;;;;1.00;0.55;;;;;;;14.77;100.00;101954.38;10621967;27;20113;-76
2022/10/28 04:27:57;;;;;;;0.32;0.32;;;;;;;14.79;100.00;101947.50;10599112;27;20058;-77
2022/10/28 04:32:59;;;;;;;0.50;0.50;;;;;;;14.69;100.00;101955.91;10620946;27;20032;-77
2022/10/28 04:38:00;;;;;;;0.55;0.47;;;;;;;14.46;100.00;101974.28;10654641;27;20054;-78
2022/10/28 04:43:02;;;;;;;0.63;0.52;;;;;;;14.64;100.00;101963.53;10651138;27;20039;-76
2022/10/28 04:48:09;;;;;;;0.70;0.38;;;;;;;14.71;100.00;101957.69;10621423;27;20108;-76
2022/10/28 04:53:11;;;;;;;4.03;1.95;;;;;;;14.67;100.00;101958.44;10602464;27;20053;-77
2022/10/28 04:58:13;;;;;;;0.82;0.35;;;;;;;14.69;100.00;101955.91;10602278;27;20126;-77
2022/10/28 05:03:14;;;;;;;5.57;0.50;;;;;;;14.73;100.00;101947.34;10618537;28;20122;-77
2022/10/28 05:08:16;;;;;;;0.70;0.28;;;;;;;14.68;100.00;101944.63;10625566;27;20561;-77
2022/10/28 05:13:18;;;;;;;0.90;0.63;;;;;;;14.64;100.00;101952.25;10614544;27;20450;-78
2022/10/28 05:18:20;;;;;;;1.15;0.65;;;;;;;14.56;100.00;101958.13;10628126;27;20100;-78
2022/10/28 05:23:21;;;;;;;0.85;0.60;;;;;;;14.44;100.00;101965.56;10621976;27;20532;-78
2022/10/28 05:28:28;;;;;;;0.38;0.30;;;;;;;14.57;100.00;101961.59;10627578;27;20371;-78
2022/10/28 05:33:30;;;;;;;0.52;0.40;;;;;;;14.75;100.00;101941.34;10624264;27;20039;-79
2022/10/28 05:38:32;;;;;;;1.00;0.63;;;;;;;14.74;100.00;101939.59;10626956;27;20047;-79
2022/10/28 05:43:34;;;;;;;1.02;0.80;;;;;;;14.74;100.00;101938.72;10627347;27;20550;-79
2022/10/28 05:48:36;;;;;;;2.95;0.45;;;;;;;14.66;100.00;101932.47;10626672;27;20397;-79
2022/10/28 05:53:37;;;;;;;3.00;1.13;;;;;;;14.69;100.00;101942.94;10608576;27;20581;-79
2022/10/28 05:58:39;;;;;;;3.00;0.88;;;;;;;14.69;100.00;101940.34;10608211;27;20055;-79
2022/10/28 06:03:40;;;;;;;1.25;0.88;;;;;;;14.65;100.00;101928.06;10608010;27;20039;-78
2022/10/28 06:08:42;;;;;;;8.77;1.42;;;;;;;14.51;100.00;101926.00;10624550;27;20129;-79
2022/10/28 06:13:43;;;;;;;1.23;0.80;;;;;;;14.56;100.00;101934.78;10583615;27;20485;-78
2022/10/28 06:18:45;;;;;;;2.08;1.13;;;;;;;14.58;100.00;101942.63;10624493;27;20062;-79
2022/10/28 06:23:47;;;;;;;0.70;0.70;;;;;;;14.58;100.00;101953.84;10624318;27;20071;-78
2022/10/28 06:28:48;;;;;;;0.40;0.20;;;;;;;14.66;100.00;101946.31;10602131;27;20152;-78
2022/10/28 06:33:50;;;;;;;1.95;0.45;;;;;;;14.73;100.00;101947.34;10623713;27;20555;-78
2022/10/28 06:38:52;;;;;;;0.10;0.10;;;;;;;14.70;100.00;101949.88;10604302;27;20501;-79
2022/10/28 06:43:53;;;;;;;2.45;0.57;;;;;;;14.75;100.00;101956.06;10622769;27;20041;-78
2022/10/28 06:48:55;;;;;;;3.10;1.50;;;;;;;14.74;100.00;101949.97;10604035;27;20122;-78
2022/10/28 06:53:58;;;;;;;2.20;1.08;;;;;;;14.97;100.00;101941.00;10605175;27;20043;-79
2022/10/28 06:58:59;;;;;;;0.17;0.10;;;;;;;14.92;100.00;101930.53;10619692;27;20053;-78
2022/10/28 07:04:01;;;;;;;0.55;0.55;;;;;;;15.02;100.00;101952.38;10622367;27;20035;-78
2022/10/28 07:09:02;;;;;;;1.77;1.15;;;;;;;15.07;100.00;101951.66;10623683;27;20055;-78
2022/10/28 07:14:05;;;;;;;7.95;0.82;;;;;;;15.18;100.00;101957.09;10600058;27;20580;-79
2022/10/28 07:19:07;;;;;;;1.77;0.57;;;;;;;15.23;100.00;101954.63;10618161;27;20122;-78
2022/10/28 07:24:08;;;;;;;1.75;1.65;;;;;;;15.39;100.00;101945.44;10598312;27;20042;-79
2022/10/28 07:29:11;;;;;;;2.67;1.73;;;;;;;15.51;100.00;101940.56;10621215;27;20067;-79
2022/10/28 07:34:12;;;;;;;0.43;0.43;;;;;;;15.66;100.00;101924.41;10621864;27;20129;-79
2022/10/28 07:39:14;;;;;;;0.75;0.57;;;;;;;15.73;100.00;101930.63;10621174;27;20038;-78
2022/10/28 07:44:16;;;;;;;2.95;1.70;;;;;;;15.79;100.00;101925.53;10602397;27;20122;-79
2022/10/28 07:49:17;;;;;;;1.38;0.50;;;;;;;16.14;100.00;101912.41;10615091;27;20065;-79
2022/10/28 07:54:19;;;;;;;0.60;0.50;;;;;;;16.58;100.00;101874.16;10594459;27;20110;-79
2022/10/28 07:59:23;;;;;;;0.38;0.30;;;;;;;16.50;100.00;101868.81;10593274;27;20035;-79
2022/10/28 08:04:31;;;;;;;2.20;0.95;;;;;;;16.60;100.00;101864.66;10618339;27;20394;-79
2022/10/28 08:09:32;;;;;;;0.43;0.43;;;;;;;16.58;100.00;101859.44;10602069;27;20066;-79
2022/10/28 08:14:34;;;;;;;1.90;0.95;;;;;;;16.55;100.00;101856.75;10598441;27;20067;-79
2022/10/28 08:19:36;;;;;;;1.05;0.70;;;;;;;17.24;100.00;101849.16;10600368;27;20118;-79
2022/10/28 08:24:37;;;;;;;1.33;0.68;;;;;;;17.21;100.00;101790.94;10596294;27;20039;-79
2022/10/28 08:29:39;;;;;;;0.43;0.32;;;;;;;17.31;100.00;101808.44;10613630;27;20122;-79
2022/10/28 08:34:40;;;;;;;0.47;0.45;;;;;;;17.65;100.00;101781.91;10620607;27;20486;-79
2022/10/28 08:39:44;;;;;;;2.88;0.35;;;;;;;18.16;100.00;101743.28;10601911;27;20041;-79
2022/10/28 08:45:20;;;;;;;2.05;0.70;;;;;;;18.24;100.00;101744.22;10617277;27;20574;-79
2022/10/28 08:50:25;;;;;;;2.25;0.93;;;;;;;18.30;100.00;101723.38;10613020;27;20498;-79
2022/10/28 08:55:32;;;;;;;0.82;0.45;;;;;;;18.51;100.00;101724.38;10615467;27;20035;-79
2022/10/28 09:00:35;;;;;;;1.25;0.93;;;;;;;18.22;100.00;101719.84;10605802;27;20158;-79
2022/10/28 09:06:04;;;;;;;0.85;0.73;;;;;;;18.23;100.00;101719.00;10598926;28;20532;-79
2022/10/28 09:11:29;;;;;;;3.28;1.02;;;;;;;18.28;100.00;101730.31;10596045;28;20043;-79
2022/10/28 09:16:49;;;;;;;0.63;0.55;;;;;;;18.41;100.00;101736.50;10593620;28;20043;-79
2022/10/28 09:22:37;;;;;;;0.28;0.20;;;;;;;18.45;100.00;101724.34;10599100;28;20150;-78
2022/10/28 09:28:14;;;;;;;0.75;0.45;;;;;;;18.52;100.00;101726.13;10615176;28;20126;-79
2022/10/28 09:33:36;;;;;;;0.50;0.50;;;;;;;18.68;100.00;101716.69;10614186;28;20114;-79
2022/10/28 09:38:38;;;;;;;0.47;0.47;;;;;;;18.73;100.00;101711.47;10599560;28;20367;-79
2022/10/28 09:43:55;;;;;;;0.38;0.20;;;;;;;19.39;100.00;101706.50;10599269;28;20085;-79
2022/10/28 09:49:08;;;;;;;0.77;0.55;;;;;;;20.15;100.00;101697.84;10618345;28;20039;-79
2022/10/28 09:54:11;;;;;;;2.72;0.63;;;;;;;20.11;100.00;101697.84;10604106;27;20045;-78
2022/10/28 09:59:14;;;;;;;1.10;0.68;;;;;;;20.22;100.00;101703.06;10595628;27;20468;-79
2022/10/28 10:04:22;;;;;;;0.45;0.32;;;;;;;20.28;100.00;101710.03;10622709;27;20031;-79
2022/10/28 10:09:30;;;;;;;2.28;1.10;;;;;;;20.23;100.00;101715.28;10598563;27;20130;-79
2022/10/28 10:14:39;;;;;;;2.17;0.43;;;;;;;19.96;100.00;101701.34;10623346;27;20047;-79
2022/10/28 10:20:05;;;;;;;1.10;1.00;;;;;;;20.63;100.00;101705.59;10624636;27;20045;-79
2022/10/28 10:25:19;;;;;;;0.15;0.10;;;;;;;20.74;100.00;101709.94;10617502;27;20031;-78
2022/10/28 10:30:38;;;;;;;0.20;0.20;;;;;;;20.91;100.00;101699.41;10581879;27;20053;-78
2022/10/28 10:35:39;;;;;;;2.03;0.60;;;;;;;20.84;100.00;101700.31;10616926;27;20118;-78
2022/10/28 10:40:50;;;;;;;0.45;0.30;;;;;;;20.38;100.00;101705.66;10606358;27;20114;-78
2022/10/28 10:45:59;;;;;;;0.47;0.25;;;;;;;20.86;100.00;101702.91;10620572;27;20074;-78
2022/10/28 10:51:07;;;;;;;0.17;0.15;;;;;;;20.77;100.00;101709.91;10618990;27;20039;-79
2022/10/28 10:56:10;;;;;;;1.67;0.20;;;;;;;21.42;100.00;101690.38;10601956;27;20062;-78
2022/10/28 11:01:18;;;;;;;2.63;0.75;;;;;;;21.45;100.00;101687.75;10594287;27;20138;-78
2022/10/28 11:06:26;;;;;;;0.13;0.13;;;;;;;21.60;100.00;101672.81;10620489;27;20031;-78
2022/10/28 11:11:39;;;;;;;4.28;1.55;;;;;;;21.66;100.00;101676.28;10590189;27;20129;-78
2022/10/28 11:16:52;;;;;;;0.93;0.55;;;;;;;21.71;100.00;101668.34;10603509;27;20039;-79
2022/10/28 11:22:16;;;;;;;0.70;0.57;;;;;;;21.37;100.00;101653.72;10603661;27;20043;-78
2022/10/28 11:27:37;;;;;;;1.95;0.77;;;;;;;21.58;100.00;101645.72;10620265;27;20438;-79
2022/10/28 11:32:44;;;;;;;0.52;0.52;;;;;;;21.77;100.00;101639.47;10614298;27;20504;-79
2022/10/28 11:38:31;;;;;;;0.40;0.25;;;;;;;21.71;100.00;101629.88;10619926;27;20394;-78
2022/10/28 11:43:52;;;;;;;0.98;0.88;;;;;;;22.33;100.00;101623.13;10617021;27;20047;-78
2022/10/28 11:49:27;;;;;;;0.50;0.20;;;;;;;21.83;100.00;101626.28;10619208;27;20039;-79
2022/10/28 11:54:59;;;;;;;1.45;0.90;;;;;;;22.13;100.00;101623.34;10604790;27;20039;-79
2022/10/28 12:00:26;;;;;;;0.95;0.57;;;;;;;22.36;100.00;101617.84;10572925;27;20066;-78
2022/10/28 12:06:03;;;;;;;0.63;0.50;;;;;;;22.34;100.00;101601.25;10583772;27;20509;-78
2022/10/28 12:11:05;;;;;;;1.70;0.68;;;;;;;21.86;100.00;101600.00;10582931;27;20596;-78
2022/10/28 12:16:25;;;;;;;1.80;1.33;;;;;;;21.79;100.00;101586.97;10618276;27;20539;-78
2022/10/28 12:21:29;;;;;;;5.82;1.38;;;;;;;22.01;100.00;101592.84;10597655;27;20071;-78
2022/10/28 12:26:45;;;;;;;1.95;0.80;;;;;;;21.90;100.00;101586.88;10619214;27;20031;-79
2022/10/28 12:31:53;;;;;;;1.83;0.77;;;;;;;21.75;100.00;101601.88;10591567;27;20099;-78
2022/10/28 12:37:03;;;;;;;0.27;0.27;;;;;;;21.71;100.00;101610.66;10617712;27;20126;-78
2022/10/28 12:42:38;;;;;;;1.02;0.50;;;;;;;21.63;100.00;101620.38;10618174;27;20058;-78
2022/10/28 12:47:56;;;;;;;0.38;0.38;;;;;;;21.50;100.00;101607.31;10607661;27;20051;-78
2022/10/28 12:53:04;;;;;;;0.28;0.28;;;;;;;21.44;100.00;101612.59;10609766;27;20039;-78
2022/10/28 12:58:19;;;;;;;3.28;0.80;;;;;;;21.47;100.00;101617.84;10586502;27;20081;-78
2022/10/28 13:03:21;;;;;;;0.32;0.28;;;;;;;21.41;100.00;101628.34;10615802;27;20035;-78
2022/10/28 13:08:45;;;;;;;0.35;0.35;;;;;;;21.49;100.00;101639.63;10599391;27;20081;-78
2022/10/28 13:14:42;;;;;;;0.65;0.55;;;;;;;21.70;100.00;101629.91;10612349;27;20176;-78
2022/10/28 13:19:56;;;;;;;0.90;0.87;;;;;;;21.73;100.00;101635.09;10589732;27;20394;-78
2022/10/28 13:25:44;;;;;;;2.67;0.57;;;;;;;21.89;100.00;101637.59;10590383;28;20607;-78
2022/10/28 13:30:58;;;;;;;1.60;1.30;;;;;;;21.99;100.00;101645.34;10623636;27;20043;-78
2022/10/28 13:36:30;;;;;;;0.40;0.20;;;;;;;21.97;100.00;101638.38;10615999;27;20688;-78
2022/10/28 13:42:12;;;;;;;0.65;0.28;;;;;;;21.83;100.00;101644.66;10616228;27;20035;-78
2022/10/28 13:47:36;;;;;;;4.63;2.08;;;;;;;21.69;100.00;101652.63;10618844;27;20031;-78
2022/10/28 13:52:45;;;;;;;1.15;0.95;;;;;;;21.65;100.00;101647.41;10622438;27;20077;-78
2022/10/28 13:57:50;;;;;;;3.55;0.55;;;;;;;21.60;100.00;101654.47;10622103;27;20572;-78
2022/10/28 14:03:18;;;;;;;1.65;0.80;;;;;;;21.48;100.00;101661.50;10620137;27;20033;-78
2022/10/28 14:08:52;;;;;;;0.20;0.20;;;;;;;21.45;100.00;101665.88;10602728;27;20512;-77
2022/10/28 14:13:58;;;;;;;0.80;0.68;;;;;;;21.31;100.00;101663.38;10580484;27;20062;-79
2022/10/28 14:19:05;;;;;;;1.13;0.65;;;;;;;21.16;100.00;101678.31;10621442;27;20506;-77
2022/10/28 14:24:11;;;;;;;0.43;0.43;;;;;;;21.12;100.00;101689.69;10611464;27;20044;-78
2022/10/28 14:29:26;;;;;;;0.10;0.00;;;;;;;20.91;100.00;101696.78;10603446;27;20493;-78
2022/10/28 14:34:46;;;;;;;0.55;0.35;;;;;;;20.97;100.00;101710.72;10622541;27;20028;-77
2022/10/28 14:40:22;;;;;;;5.50;3.40;;;;;;;20.82;100.00;101717.75;10603785;27;20074;-78
2022/10/28 14:45:59;;;;;;;4.80;1.50;;;;;;;20.74;100.00;101714.31;10623332;27;20027;-77
2022/10/28 14:51:03;;;;;;;0.82;0.40;;;;;;;20.66;100.00;101735.25;10604647;27;20513;-78
2022/10/28 14:56:30;;;;;;;2.53;1.23;;;;;;;20.64;100.00;101738.75;10624597;27;20027;-77
2022/10/28 15:02:15;;;;;;;0.55;0.28;;;;;;;20.42;100.00;101744.03;10621027;27;20034;-77
2022/10/28 15:07:19;;;;;;;1.55;0.50;;;;;;;20.27;100.00;101745.81;10601785;27;20118;-77
2022/10/28 15:12:24;;;;;;;0.00;0.00;;;;;;;20.20;100.00;101741.47;10603882;27;20462;-77
2022/10/28 15:17:35;;;;;;;2.72;1.08;;;;;;;20.08;100.00;101749.28;10611588;27;20506;-77
2022/10/28 15:23:17;;;;;;;2.42;0.30;;;;;;;20.04;100.00;101742.34;10617113;27;20035;-77
2022/10/28 15:28:37;;;;;;;1.95;0.75;;;;;;;19.75;100.00;101733.56;10613082;27;20474;-77
2022/10/28 15:33:41;;;;;;;0.22;0.22;;;;;;;19.79;100.00;101742.28;10615379;27;20034;-77
2022/10/28 15:38:45;;;;;;;0.38;0.38;;;;;;;19.65;100.00;101771.91;10598713;27;20139;-77
2022/10/28 15:43:54;;;;;;;1.75;0.47;;;;;;;19.53;100.00;101771.88;10611672;27;20114;-78
2022/10/28 15:49:31;;;;;;;0.80;0.38;;;;;;;19.35;100.00;101785.75;10619626;27;20034;-78
2022/10/28 15:54:54;;;;;;;0.55;0.45;;;;;;;19.36;100.00;101794.47;10597710;27;20023;-78
2022/10/28 16:00:21;;;;;;;1.15;0.20;;;;;;;19.24;100.00;101793.56;10614904;27;20047;-78
2022/10/28 16:05:31;;;;;;;0.75;0.30;;;;;;;19.10;100.00;101803.06;10617133;27;20041;-77
2022/10/28 16:10:42;;;;;;;1.67;1.55;;;;;;;18.89;100.00;101815.09;10601284;27;20043;-77
2022/10/28 16:16:08;;;;;;;0.10;0.10;;;;;;;18.82;100.00;101831.59;10618106;27;20027;-77
2022/10/28 16:21:19;;;;;;;3.20;0.60;;;;;;;18.75;100.00;101835.03;10609876;27;20046;-77
2022/10/28 16:26:45;;;;;;;0.65;0.52;;;;;;;18.92;100.00;101833.44;10594549;27;20043;-77
2022/10/28 16:31:50;;;;;;;0.60;0.60;;;;;;;18.73;100.00;101840.25;10617060;27;20118;-77
2022/10/28 16:36:52;;;;;;;0.25;0.20;;;;;;;18.65;100.00;101842.78;10603652;27;20059;-77
2022/10/28 16:41:56;;;;;;;1.55;0.45;;;;;;;18.43;100.00;101846.13;10615737;27;20137;-78
2022/10/28 16:46:57;;;;;;;0.55;0.30;;;;;;;18.47;100.00;101846.13;10598086;27;20043;-78
2022/10/28 16:52:01;;;;;;;0.40;0.30;;;;;;;18.19;100.00;101837.22;10603983;27;20071;-77
2022/10/28 16:57:09;;;;;;;1.10;0.65;;;;;;;18.14;100.00;101846.69;10603840;27;20137;-77
2022/10/28 17:02:24;;;;;;;0.10;0.10;;;;;;;17.93;100.00;101858.63;10613675;27;20046;-77
2022/10/28 17:07:27;;;;;;;7.55;0.30;;;;;;;18.03;100.00;101873.56;10617688;27;20550;-78
2022/10/28 17:12:29;;;;;;;1.05;0.60;;;;;;;17.65;100.00;101897.44;10618262;28;20118;-78
2022/10/28 17:17:30;;;;;;;0.05;0.05;;;;;;;17.47;100.00;101905.00;10597271;27;20039;-78
2022/10/28 17:22:32;;;;;;;12.10;1.98;;;;;;;17.50;100.00;101912.84;10618813;27;20066;-78
2022/10/28 17:27:33;;;;;;;0.50;0.40;;;;;;;17.17;100.00;101915.00;10586780;28;20047;-77
2022/10/28 17:32:38;;;;;;;0.40;0.15;;;;;;;17.11;100.00;101931.41;10620341;28;20129;-77
2022/10/28 17:37:40;;;;;;;0.20;0.20;;;;;;;17.10;100.00;101941.81;10621174;28;20043;-77
2022/10/28 17:42:42;;;;;;;0.17;0.17;;;;;;;16.94;100.00;101948.53;10598737;28;20513;-77
2022/10/28 17:47:48;;;;;;;1.45;0.45;;;;;;;16.59;100.00;101966.94;10617613;28;20125;-77
2022/10/28 17:52:54;;;;;;;0.32;0.20;;;;;;;16.79;100.00;101968.16;10582935;28;20064;-77
2022/10/28 17:58:13;;;;;;;1.00;0.82;;;;;;;16.46;100.00;102034.38;10604796;28;20578;-77
2022/10/28 18:03:16;;;;;;;0.90;0.55;;;;;;;16.42;100.00;102084.56;10594894;28;20043;-77
2022/10/28 18:08:22;;;;;;;0.45;0.45;;;;;;;16.25;100.00;102092.00;10622066;28;20066;-77
2022/10/28 18:13:31;;;;;;;0.85;0.28;;;;;;;16.09;100.00;102111.59;10622281;27;20039;-77
2022/10/28 18:18:36;;;;;;;4.10;0.32;;;;;;;15.99;100.00;102136.53;10630110;27;20050;-77
2022/10/28 18:23:43;;;;;;;1.63;1.52;;;;;;;15.84;100.00;102165.59;10609101;27;20406;-77
2022/10/28 18:28:45;;;;;;;0.32;0.20;;;;;;;16.03;100.00;102163.47;10615421;27;20130;-77
2022/10/28 18:33:48;;;;;;;0.75;0.38;;;;;;;16.05;100.00;102169.56;10618603;27;20118;-77
2022/10/28 18:39:07;;;;;;;1.33;1.23;;;;;;;16.10;100.00;102169.66;10605701;27;20607;-77
2022/10/28 18:44:11;;;;;;;0.65;0.50;;;;;;;16.31;100.00;102158.88;10582638;27;20169;-77
2022/10/28 18:49:13;;;;;;;0.28;0.20;;;;;;;16.22;100.00;102158.66;10608318;27;20061;-77
2022/10/28 18:54:15;;;;;;;0.52;0.50;;;;;;;15.74;100.00;102181.81;10617879;27;20038;-77
2022/10/28 18:59:16;;;;;;;0.55;0.52;;;;;;;15.61;100.00;102218.66;10642474;27;20054;-77
2022/10/28 19:04:35;;;;;;;1.30;0.63;;;;;;;15.23;100.00;102246.25;10660960;27;20038;-77
2022/10/28 19:09:37;;;;;;;0.45;0.40;;;;;;;15.18;100.00;102268.59;10660413;27;20398;-77
2022/10/28 19:14:40;;;;;;;0.90;0.43;;;;;;;15.10;100.00;102269.22;10643354;27;20022;-77
2022/10/28 19:19:42;;;;;;;0.73;0.70;;;;;;;15.23;100.00;102267.00;10660750;27;20058;-77
2022/10/28 19:24:44;;;;;;;0.47;0.30;;;;;;;15.12;100.00;102267.53;10661156;27;20039;-78
2022/10/28 19:29:46;;;;;;;0.30;0.30;;;;;;;14.90;100.00;102256.53;10649468;27;20039;-77
2022/10/28 19:34:47;;;;;;;1.60;0.75;;;;;;;15.10;100.00;102272.69;10650104;27;20060;-77
2022/10/28 19:39:54;;;;;;;2.20;1.27;;;;;;;15.00;100.00;102284.53;10637954;27;20043;-77
2022/10/28 19:44:58;;;;;;;10.65;2.53;;;;;;;14.79;100.00;102279.56;10644839;27;20062;-78
2022/10/28 19:49:59;;;;;;;0.43;0.30;;;;;;;14.82;100.00;102290.03;10661867;27;20050;-77
2022/10/28 19:55:01;;;;;;;2.88;1.65;;;;;;;14.75;100.00;102293.28;10615577;27;20061;-78
2022/10/28 20:00:03;;;;;;;0.10;0.10;;;;;;;14.96;100.00;102303.44;10621034;27;20498;-78
2022/10/28 20:05:12;;;;;;;0.73;0.40;;;;;;;15.42;100.00;102303.00;10639462;27;20047;-78
2022/10/28 20:10:17;;;;;;;1.88;0.55;;;;;;;15.41;100.00;102312.53;10633652;27;20047;-78
2022/10/28 20:15:19;;;;;;;0.63;0.22;;;;;;;15.46;100.00;102329.09;10641757;27;20043;-77
2022/10/28 20:20:38;;;;;;;0.40;0.40;;;;;;;15.30;100.00;102326.94;10617563;27;20050;-77
2022/10/28 20:26:07;;;;;;;0.88;0.75;;;;;;;15.00;100.00;102327.78;10628537;27;20035;-77
2022/10/28 20:31:11;;;;;;;1.58;0.77;;;;;;;14.30;100.00;102371.31;10605523;27;20126;-77
2022/10/28 20:36:24;;;;;;;0.65;0.35;;;;;;;14.31;100.00;102386.91;10602343;27;20081;-77
2022/10/28 20:41:46;;;;;;;0.65;0.52;;;;;;;14.87;100.00;102397.44;10614225;27;20034;-77
2022/10/28 20:46:47;;;;;;;0.28;0.28;;;;;;;14.79;100.00;102382.47;10591703;27;20046;-77
2022/10/28 20:51:49;;;;;;;0.50;0.30;;;;;;;14.59;100.00;102391.31;10623254;27;20049;-77
2022/10/28 20:56:55;;;;;;;1.40;0.93;;;;;;;14.53;100.00;102391.13;10589254;27;20058;-77
2022/10/28 21:01:57;;;;;;;0.47;0.47;;;;;;;14.38;100.00;102404.44;10623701;27;20054;-77
2022/10/28 21:07:04;;;;;;;1.35;1.25;;;;;;;14.54;100.00;102424.00;10592389;27;20043;-77
2022/10/28 21:12:31;;;;;;;1.05;0.50;;;;;;;14.68;100.00;102441.78;10602861;28;20518;-77
2022/10/28 21:17:33;;;;;;;0.52;0.30;;;;;;;14.64;100.00;102447.66;10581593;28;20090;-77
2022/10/28 21:22:34;;;;;;;0.35;0.20;;;;;;;14.35;100.00;102452.72;10576872;28;20047;-78
2022/10/28 21:27:36;;;;;;;0.90;0.45;;;;;;;14.23;100.00;102440.19;10606059;28;20047;-77
2022/10/28 21:32:38;;;;;;;1.25;0.63;;;;;;;14.27;100.00;102455.91;10624020;28;20486;-77
2022/10/28 21:37:39;;;;;;;2.42;0.55;;;;;;;14.01;100.00;102454.09;10607427;28;20401;-77
2022/10/28 21:42:47;;;;;;;1.13;0.57;;;;;;;13.80;100.00;102447.31;10600096;28;20126;-77
2022/10/28 21:47:52;;;;;;;0.43;0.35;;;;;;;13.57;100.00;102454.19;10591442;28;20122;-77
2022/10/28 21:52:54;;;;;;;0.55;0.52;;;;;;;13.52;100.00;102463.50;10604160;27;20039;-77
2022/10/28 21:58:02;;;;;;;1.20;0.73;;;;;;;13.52;100.00;102479.91;10603875;27;20130;-78
2022/10/28 22:03:04;;;;;;;1.02;0.73;;;;;;;13.57;100.00;102491.34;10616874;27;20043;-77
2022/10/28 22:08:05;;;;;;;0.10;0.10;;;;;;;13.72;100.00;102521.25;10581771;27;20096;-77
2022/10/28 22:13:07;;;;;;;0.70;0.43;;;;;;;13.41;100.00;102517.44;10616096;27;20070;-77
2022/10/28 22:18:08;;;;;;;1.25;0.55;;;;;;;13.47;100.00;102515.09;10616805;27;20103;-77
2022/10/28 22:23:27;;;;;;;0.75;0.43;;;;;;;13.40;100.00;102520.84;10630865;27;20130;-77
2022/10/28 22:28:29;;;;;;;1.02;0.40;;;;;;;13.39;100.00;102539.81;10630348;27;20131;-77
2022/10/28 22:33:31;;;;;;;2.17;0.95;;;;;;;13.05;100.00;102548.75;10617149;27;20039;-77
2022/10/28 22:38:51;;;;;;;3.88;0.82;;;;;;;12.45;100.00;102536.69;10588558;27;20108;-77
2022/10/28 22:43:57;;;;;;;0.80;0.50;;;;;;;13.04;100.00;102539.19;10617015;27;20067;-77
2022/10/28 22:49:16;;;;;;;1.65;0.80;;;;;;;12.77;100.00;102543.25;10604516;27;20038;-77
2022/10/28 22:54:35;;;;;;;0.33;0.27;;;;;;;12.76;100.00;102553.56;10613987;27;20164;-77
2022/10/28 22:59:37;;;;;;;1.35;0.98;;;;;;;12.53;100.00;102549.13;10628486;27;20066;-77
2022/10/28 23:04:38;;;;;;;0.15;0.15;;;;;;;12.56;100.00;102556.13;10615948;27;20040;-77
2022/10/28 23:09:40;;;;;;;2.22;1.58;;;;;;;12.03;100.00;102558.06;10586170;28;20086;-77
2022/10/28 23:14:42;;;;;;;1.92;1.83;;;;;;;12.20;100.00;102543.34;10593986;27;20073;-77
2022/10/28 23:20:01;;;;;;;0.70;0.70;;;;;;;12.12;100.00;102553.34;10588946;27;20035;-77
2022/10/28 23:25:02;;;;;;;1.02;0.43;;;;;;;12.45;100.00;102567.72;10568122;28;20487;-77
2022/10/28 23:30:05;;;;;;;0.20;0.20;;;;;;;12.20;100.00;102566.59;10608585;27;20122;-77